createdAt,value
2023-04-08T08:04:50.775Z,101912.97
2023-04-08T08:10:16.802Z,101920.52
2023-04-08T08:15:42.526Z,101916.45
2023-04-08T08:21:08.540Z,101919.55
2023-04-08T08:54:31.159Z,101945.95
2023-04-08T08:59:57.068Z,101950.30
2023-04-08T09:05:24.162Z,101958.30
2023-04-08T09:10:50.385Z,101966.06
2023-04-08T09:16:17.497Z,101970.95
2023-04-08T09:21:37.950Z,101975.15
2023-04-08T09:27:07.872Z,101980.67
2023-04-08T09:32:33.794Z,101983.27
2023-04-08T09:37:59.512Z,101992.23
2023-04-08T09:43:29.643Z,101995.73
2023-04-08T09:49:00.735Z,101997.09
2023-04-08T09:54:35.216Z,101994.85
2023-04-08T10:00:05.890Z,101997.75
2023-04-08T10:05:35.794Z,101999.80
2023-04-08T10:11:03.020Z,101998.33
2023-04-08T10:16:42.543Z,101997.02
2023-04-08T10:21:57.090Z,102000.16
2023-04-08T10:27:12.805Z,101998.84
2023-04-08T10:32:43.595Z,101999.20
2023-04-08T10:38:03.338Z,101999.58
2023-04-08T10:43:14.102Z,101999.66
2023-04-08T10:48:41.769Z,101999.48
2023-04-08T10:54:00.067Z,101992.96
2023-04-08T10:59:20.170Z,101997.53
2023-04-08T11:04:31.263Z,101995.88
2023-04-08T11:09:47.570Z,101997.31
2023-04-08T11:14:55.841Z,101995.59
2023-04-08T11:20:06.641Z,101998.52
2023-04-08T11:25:20.142Z,101999.94
2023-04-08T11:30:46.332Z,101998.70
2023-04-08T11:35:56.636Z,101999.99
2023-04-08T11:41:22.787Z,102005.59
2023-04-08T11:46:33.308Z,102003.93
2023-04-08T11:52:16.087Z,101998.52
2023-04-08T11:57:51.121Z,101995.92
2023-04-08T12:03:17.085Z,101989.06
2023-04-08T12:08:30.467Z,101990.60
2023-04-08T12:13:38.916Z,101994.78
2023-04-08T12:18:47.463Z,101989.71
2023-04-08T12:24:13.124Z,101988.11
2023-04-08T12:29:29.843Z,101988.94
2023-04-08T12:34:38.089Z,101993.77
2023-04-08T12:40:02.653Z,101998.34
2023-04-08T12:45:31.109Z,101995.42
2023-04-08T12:50:57.007Z,101992.67
2023-04-08T12:56:22.711Z,101984.87
2023-04-08T13:01:49.073Z,101979.41
2023-04-08T13:07:07.521Z,101980.60
2023-04-08T13:12:33.203Z,101973.55
2023-04-08T13:17:58.910Z,101967.98
2023-04-08T13:23:25.086Z,101959.60
2023-04-08T13:28:31.067Z,101957.88
2023-04-08T13:33:58.262Z,101960.51
2023-04-08T13:39:24.277Z,101954.23
2023-04-08T13:44:50.105Z,101957.02
2023-04-08T13:50:15.134Z,101956.35
2023-04-08T13:55:41.099Z,101949.69
2023-04-08T14:00:57.084Z,101953.48
2023-04-08T14:06:22.892Z,101947.70
2023-04-08T14:11:42.391Z,101944.14
2023-04-08T14:17:08.223Z,101943.64
2023-04-08T14:22:33.902Z,101941.59
2023-04-08T14:27:56.761Z,101940.23
2023-04-08T14:33:13.347Z,101945.25
2023-04-08T14:38:27.826Z,101943.53
2023-04-08T14:43:42.377Z,101941.91
2023-04-08T14:49:08.218Z,101939.13
2023-04-08T14:54:27.826Z,101935.36
2023-04-08T14:59:53.557Z,101930.88
2023-04-08T15:05:19.704Z,101932.20
2023-04-08T15:10:45.559Z,101935.96
2023-04-08T15:16:03.696Z,101931.75
2023-04-08T15:21:12.147Z,101934.48
2023-04-08T15:26:28.183Z,101937.73
2023-04-08T15:31:54.001Z,101940.54
2023-04-08T15:37:19.715Z,101936.99
2023-04-08T15:42:45.503Z,101932.52
2023-04-08T15:47:52.422Z,101935.92
2023-04-08T15:53:08.087Z,101937.34
2023-04-08T15:58:13.607Z,101934.88
2023-04-08T16:03:39.635Z,101942.31
2023-04-08T16:08:48.553Z,101942.43
2023-04-08T16:14:04.603Z,101941.13
2023-04-08T16:19:23.336Z,101944.37
2023-04-08T16:24:38.959Z,101942.80
2023-04-08T16:29:57.374Z,101949.68
2023-04-08T16:35:23.141Z,101950.73
2023-04-08T16:40:48.984Z,101957.13
2023-04-08T16:46:14.727Z,101960.23
2023-04-08T16:51:33.126Z,101969.55
2023-04-08T16:56:58.905Z,101975.32
2023-04-08T17:02:24.707Z,101977.08
2023-04-08T17:07:51.006Z,101980.46
2023-04-08T17:13:15.700Z,101986.49
2023-04-08T17:18:41.598Z,101994.34
2023-04-08T17:24:07.317Z,102000.20
2023-04-08T17:29:32.940Z,102003.80
2023-04-08T17:34:58.817Z,102013.91
2023-04-08T17:40:24.812Z,102033.59
2023-04-08T17:45:50.620Z,102052.83
2023-04-08T17:51:22.297Z,102062.66
2023-04-08T17:56:49.548Z,102077.50
2023-04-08T18:02:15.490Z,102085.88
2023-04-08T18:07:41.251Z,102095.75
2023-04-08T18:13:11.561Z,102111.86
2023-04-08T18:18:37.695Z,102127.31
2023-04-08T18:24:03.596Z,102137.21
2023-04-08T18:29:29.560Z,102146.00
2023-04-08T18:34:55.298Z,102156.77
2023-04-08T18:40:21.048Z,102162.38
2023-04-08T18:45:46.772Z,102169.19
2023-04-08T18:51:12.806Z,102175.21
2023-04-08T18:56:39.423Z,102182.52
2023-04-08T19:02:05.188Z,102190.41
2023-04-08T19:07:30.974Z,102196.31
2023-04-08T19:12:56.681Z,102196.72
2023-04-08T19:18:22.376Z,102197.13
2023-04-08T19:23:48.365Z,102198.86
2023-04-08T19:29:14.097Z,102201.52
2023-04-08T19:35:01.533Z,102202.67
2023-04-08T19:40:26.141Z,102206.98
2023-04-08T19:45:51.903Z,102207.56
2023-04-08T19:51:46.924Z,102207.38
2023-04-08T19:57:12.736Z,102211.16
2023-04-08T20:02:38.663Z,102207.49
2023-04-08T20:08:04.601Z,102213.75
2023-04-08T20:13:30.284Z,102218.80
2023-04-08T20:18:35.718Z,102223.84
2023-04-08T20:23:44.279Z,102225.48
2023-04-08T20:28:50.874Z,102229.94
2023-04-08T20:33:56.390Z,102224.55
2023-04-08T20:39:02.364Z,102222.55
2023-04-08T20:44:10.483Z,102222.74
2023-04-08T20:49:16.370Z,102221.86
2023-04-08T20:54:22.573Z,102224.97
2023-04-08T20:59:28.203Z,102222.10
2023-04-08T21:04:33.575Z,102225.71
2023-04-08T21:09:39.052Z,102227.27
2023-04-08T21:14:45.725Z,102229.09
2023-04-08T21:19:52.002Z,102232.86
2023-04-08T21:24:57.612Z,102230.20
2023-04-08T21:30:03.802Z,102228.17
2023-04-08T21:35:10.540Z,102232.80
2023-04-08T21:40:16.131Z,102235.70
2023-04-08T21:45:21.702Z,102236.83
2023-04-08T21:50:26.971Z,102233.95
2023-04-08T21:55:32.371Z,102233.42
2023-04-08T22:00:37.716Z,102231.69
2023-04-08T22:05:42.979Z,102230.69
2023-04-08T22:10:48.399Z,102228.02
2023-04-08T22:15:53.694Z,102221.68
2023-04-08T22:20:59.153Z,102215.82
2023-04-08T22:26:04.857Z,102215.14
2023-04-08T22:31:12.368Z,102217.91
2023-04-08T22:36:17.703Z,102211.96
2023-04-08T22:41:24.405Z,102209.34
2023-04-08T22:46:29.786Z,102209.62
2023-04-08T22:51:35.253Z,102207.78
2023-04-08T22:56:40.838Z,102206.02
2023-04-08T23:01:46.427Z,102198.16
2023-04-08T23:06:51.829Z,102202.52
2023-04-08T23:11:58.054Z,102204.52
2023-04-08T23:17:05.402Z,102209.95
2023-04-08T23:22:11.351Z,102209.42
2023-04-08T23:27:16.731Z,102202.34
2023-04-08T23:32:22.126Z,102201.89
2023-04-08T23:37:27.967Z,102206.63
2023-04-08T23:42:33.397Z,102203.23
2023-04-08T23:47:38.682Z,102204.41
2023-04-08T23:52:44.115Z,102203.05
2023-04-08T23:57:50.717Z,102199.80
